createdAt,value
2016-11-23T00:00:53.254Z,11.18
2016-11-23T00:02:01.829Z,11.15
2016-11-23T00:03:11.042Z,11.2
2016-11-23T00:04:19.933Z,11.31
2016-11-23T00:05:28.824Z,11.46
2016-11-23T00:06:38.018Z,11.28
2016-11-23T00:07:46.909Z,11.34
2016-11-23T00:08:55.807Z,11.04
2016-11-23T00:10:04.702Z,11.19
2016-11-23T00:11:13.285Z,11.23
2016-11-23T00:12:22.531Z,11.05
2016-11-23T00:13:31.427Z,11.16
2016-11-23T00:14:40.318Z,11.2
2016-11-23T00:15:49.211Z,11.48
2016-11-23T00:16:57.788Z,11.54
2016-11-23T00:18:06.694Z,11.55
2016-11-23T00:19:15.270Z,11.54
2016-11-23T00:20:24.507Z,11.38
2016-11-23T00:21:33.082Z,10.83
2016-11-23T00:22:41.656Z,11.23
2016-11-23T00:23:50.906Z,11.18
2016-11-23T00:24:59.479Z,11.28
2016-11-23T00:26:08.371Z,11.11
2016-11-23T00:27:16.948Z,10.78
2016-11-23T00:28:25.843Z,10.98
2016-11-23T00:29:34.839Z,11.16
2016-11-23T00:30:43.415Z,11.31
2016-11-23T00:31:52.021Z,11.58
2016-11-23T00:33:00.911Z,11.64
2016-11-23T00:34:09.485Z,11.36
2016-11-23T00:35:18.116Z,11.28
2016-11-23T00:36:27.010Z,11.18
2016-11-23T00:37:35.584Z,11.22
2016-11-23T00:38:44.476Z,10.73
2016-11-23T00:39:53.367Z,10.76
2016-11-23T00:41:01.994Z,11.08
2016-11-23T00:42:10.569Z,11.09
2016-11-23T00:43:19.471Z,11.01
2016-11-23T00:44:28.044Z,11.12
2016-11-23T00:45:36.620Z,10.75
2016-11-23T00:46:45.645Z,10.87
2016-11-23T00:47:54.544Z,10.9
2016-11-23T00:49:03.117Z,10.98
2016-11-23T00:50:12.008Z,10.83
2016-11-23T00:51:20.581Z,10.8
2016-11-23T00:52:30.467Z,10.75
2016-11-23T00:53:39.358Z,10.76
2016-11-23T00:54:47.934Z,10.86
2016-11-23T00:55:57.140Z,11.09
2016-11-23T00:57:05.716Z,11.23
2016-11-23T00:58:14.659Z,11.19
2016-11-23T00:59:23.871Z,11.15
2016-11-23T01:00:32.774Z,10.55
2016-11-23T01:01:41.663Z,10.65
2016-11-23T01:02:50.243Z,10.55
2016-11-23T01:03:58.877Z,10.27
2016-11-23T01:05:07.451Z,10.38
2016-11-23T01:06:16.025Z,10.34
2016-11-23T01:07:25.235Z,10.45
2016-11-23T01:08:34.128Z,10.61
2016-11-23T01:09:43.054Z,10.65
2016-11-23T01:10:51.629Z,10.73
2016-11-23T01:12:00.524Z,10.85
2016-11-23T01:13:10.055Z,10.9
2016-11-23T01:14:19.268Z,10.86
2016-11-23T01:15:28.290Z,10.85
2016-11-23T01:16:36.868Z,10.8
2016-11-23T01:17:45.766Z,10.68
2016-11-23T01:18:54.660Z,10.86
2016-11-23T01:20:03.875Z,10.95
2016-11-23T01:21:13.536Z,11.15
2016-11-23T01:22:22.426Z,11.09
2016-11-23T01:23:31.315Z,11.01
2016-11-23T01:24:40.218Z,11.15
2016-11-23T01:25:49.112Z,11.18
2016-11-23T01:26:57.982Z,11.09
2016-11-23T01:28:06.558Z,11.11
2016-11-23T01:29:15.781Z,11.09
2016-11-23T01:30:24.679Z,11.09
2016-11-23T01:31:33.267Z,10.97
2016-11-23T01:32:42.513Z,10.85
2016-11-23T01:33:51.407Z,10.91
2016-11-23T01:35:00.330Z,11.18
2016-11-23T01:36:09.225Z,11.01
2016-11-23T01:37:18.117Z,10.62
2016-11-23T01:38:27.002Z,10.72
2016-11-23T01:39:36.219Z,10.31
2016-11-23T01:40:45.116Z,10.52
2016-11-23T01:41:53.691Z,10.62
2016-11-23T01:43:02.261Z,10.61
2016-11-23T01:44:11.503Z,10.64
2016-11-23T01:45:20.084Z,10.55
2016-11-23T01:46:28.656Z,10.54
2016-11-23T01:47:37.235Z,10.62
2016-11-23T01:48:45.805Z,10.75
2016-11-23T01:49:55.366Z,10.8
2016-11-23T01:51:04.259Z,10.65
2016-11-23T01:52:13.150Z,10.7
2016-11-23T01:53:21.728Z,10.64
2016-11-23T01:54:31.266Z,10.65
2016-11-23T01:55:40.514Z,10.79
2016-11-23T01:56:49.091Z,10.64
2016-11-23T01:57:57.668Z,10.68
2016-11-23T01:59:06.563Z,10.68
2016-11-23T02:00:16.099Z,10.91
2016-11-23T02:01:24.723Z,10.8
2016-11-23T02:02:33.296Z,10.62
2016-11-23T02:03:41.876Z,10.68
2016-11-23T02:04:51.088Z,10.73
2016-11-23T02:05:59.664Z,10.86
2016-11-23T02:07:08.722Z,10.94
2016-11-23T02:08:17.936Z,11.01
2016-11-23T02:09:27.145Z,11.18
2016-11-23T02:10:36.041Z,11.22
2016-11-23T02:11:45.250Z,11.19
2016-11-23T02:12:54.192Z,11.18
2016-11-23T02:14:02.763Z,11.3
2016-11-23T02:15:11.346Z,10.91
2016-11-23T02:16:19.921Z,10.82
2016-11-23T02:17:28.498Z,10.94
2016-11-23T02:18:37.156Z,10.94
2016-11-23T02:19:45.735Z,10.87
2016-11-23T02:20:54.312Z,10.85
2016-11-23T02:22:03.208Z,10.94
2016-11-23T02:23:12.133Z,11.03
2016-11-23T02:24:21.425Z,11.15
2016-11-23T02:25:29.999Z,11.08
2016-11-23T02:26:38.895Z,11.16
2016-11-23T02:27:47.470Z,11.11
2016-11-23T02:28:56.680Z,10.95
2016-11-23T02:30:05.657Z,11.09
2016-11-23T02:31:14.550Z,11.09
2016-11-23T02:32:23.125Z,11.18
2016-11-23T02:33:32.019Z,11.13
2016-11-23T02:34:40.598Z,11.25
2016-11-23T02:35:50.210Z,11.12
2016-11-23T02:36:58.784Z,11.05
2016-11-23T02:38:07.689Z,10.98
2016-11-23T02:39:16.591Z,10.98
2016-11-23T02:40:25.490Z,10.62
2016-11-23T02:41:34.363Z,10.38
2016-11-23T02:42:42.939Z,10.36
2016-11-23T02:43:52.151Z,10.67
2016-11-23T02:45:01.362Z,10.8
2016-11-23T02:46:09.940Z,10.94
2016-11-23T02:47:18.615Z,10.9
2016-11-23T02:48:27.505Z,10.73
2016-11-23T02:49:36.081Z,10.68
2016-11-23T02:50:44.975Z,10.75
2016-11-23T02:51:53.867Z,10.78
2016-11-23T02:53:03.162Z,10.86
2016-11-23T02:54:11.743Z,10.82
2016-11-23T02:55:20.637Z,10.91
2016-11-23T02:56:29.526Z,10.67
2016-11-23T02:57:38.101Z,10.52
2016-11-23T02:58:47.030Z,10.41
2016-11-23T02:59:55.604Z,10.55
2016-11-23T03:01:04.494Z,10.38
2016-11-23T03:02:13.083Z,10.7
2016-11-23T03:03:21.652Z,10.36
2016-11-23T03:04:30.845Z,10.36
2016-11-23T03:05:39.426Z,10.39
2016-11-23T03:06:48.636Z,10.23
2016-11-23T03:07:57.541Z,10.45
2016-11-23T03:09:07.069Z,10.54
2016-11-23T03:10:16.311Z,10.83
2016-11-23T03:11:25.200Z,10.6
2016-11-23T03:12:33.772Z,10.55
2016-11-23T03:13:42.345Z,10.48
2016-11-23T03:14:50.921Z,10.55
2016-11-23T03:15:59.547Z,10.41
2016-11-23T03:17:08.125Z,10.46
2016-11-23T03:18:17.018Z,10.41
2016-11-23T03:19:25.589Z,10.31
2016-11-23T03:20:34.162Z,10.41
2016-11-23T03:21:42.784Z,10.17
2016-11-23T03:22:51.996Z,10.48
2016-11-23T03:24:00.600Z,10.64
2016-11-23T03:25:09.178Z,10.54
2016-11-23T03:26:18.068Z,10.79
2016-11-23T03:27:26.990Z,10.85
2016-11-23T03:28:35.884Z,10.87
2016-11-23T03:29:44.774Z,10.8
2016-11-23T03:30:53.345Z,10.6
2016-11-23T03:32:02.555Z,10.43
2016-11-23T03:33:11.470Z,10.76
2016-11-23T03:34:20.047Z,10.67
2016-11-23T03:35:29.286Z,10.27
2016-11-23T03:36:38.177Z,10.28
2016-11-23T03:37:47.394Z,10.38
2016-11-23T03:38:56.335Z,10.31
2016-11-23T03:40:05.231Z,10.26
2016-11-23T03:41:13.803Z,10.49
2016-11-23T03:42:22.693Z,10.38
2016-11-23T03:43:31.267Z,10.38
2016-11-23T03:44:40.190Z,10.24
2016-11-23T03:45:48.764Z,10.31
2016-11-23T03:46:57.975Z,10.24
2016-11-23T03:48:06.867Z,10.16
2016-11-23T03:49:15.756Z,10.05
2016-11-23T03:50:24.944Z,10.17
2016-11-23T03:51:33.846Z,10.14
2016-11-23T03:52:42.421Z,10.24
2016-11-23T03:53:51.338Z,10.36
2016-11-23T03:54:59.910Z,10.42
2016-11-23T03:56:08.532Z,10.45
2016-11-23T03:57:18.063Z,10.49
2016-11-23T03:58:26.958Z,10.36
2016-11-23T03:59:35.533Z,10.38
2016-11-23T04:00:44.113Z,10.3
2016-11-23T04:01:54.409Z,10.42
2016-11-23T04:03:03.298Z,10.31
2016-11-23T04:04:11.874Z,10.36
2016-11-23T04:05:20.767Z,10.55
2016-11-23T04:06:29.661Z,10.7
2016-11-23T04:07:39.287Z,10.76
2016-11-23T04:08:48.176Z,10.85
2016-11-23T04:09:56.756Z,10.61
2016-11-23T04:11:05.332Z,10.14
2016-11-23T04:12:14.219Z,9.78
2016-11-23T04:13:23.145Z,9.87
2016-11-23T04:14:31.715Z,9.94
2016-11-23T04:15:40.639Z,9.91
2016-11-23T04:16:49.534Z,9.85
2016-11-23T04:17:58.423Z,10.02
2016-11-23T04:19:07.049Z,9.87
2016-11-23T04:20:15.946Z,9.62
2016-11-23T04:21:24.838Z,9.57
2016-11-23T04:22:33.729Z,9.65
2016-11-23T04:23:42.942Z,9.88
2016-11-23T04:24:51.563Z,9.8
2016-11-23T04:26:00.458Z,9.78
2016-11-23T04:27:09.351Z,9.59
2016-11-23T04:28:17.946Z,9.6
2016-11-23T04:29:26.520Z,9.55
2016-11-23T04:30:35.851Z,9.66
2016-11-23T04:31:44.745Z,9.65
2016-11-23T04:32:53.340Z,9.69
2016-11-23T04:34:01.918Z,9.55
2016-11-23T04:35:10.495Z,9.59
2016-11-23T04:36:19.791Z,9.51
2016-11-23T04:37:28.683Z,9.42
2016-11-23T04:38:37.253Z,9.45
2016-11-23T04:39:46.143Z,9.51
2016-11-23T04:40:54.717Z,9.69
2016-11-23T04:42:03.960Z,9.9
2016-11-23T04:43:12.568Z,10.06
2016-11-23T04:44:21.137Z,10.01
2016-11-23T04:45:30.341Z,10.05
2016-11-23T04:46:38.915Z,9.98
2016-11-23T04:47:47.791Z,9.91
2016-11-23T04:48:57.001Z,9.72
2016-11-23T04:50:05.578Z,9.57
2016-11-23T04:51:14.152Z,9.7
2016-11-23T04:52:22.727Z,9.91
2016-11-23T04:53:31.350Z,9.78
2016-11-23T04:54:40.572Z,9.6
2016-11-23T04:55:49.463Z,9.44
2016-11-23T04:56:58.671Z,9.42
2016-11-23T04:58:07.564Z,9.72
2016-11-23T04:59:16.805Z,9.84
2016-11-23T05:00:25.385Z,9.67
2016-11-23T05:01:34.916Z,9.72
2016-11-23T05:02:43.493Z,9.63
2016-11-23T05:03:52.712Z,9.59
2016-11-23T05:05:01.928Z,9.51
2016-11-23T05:06:10.506Z,9.52
2016-11-23T05:07:19.396Z,9.45
2016-11-23T05:08:28.311Z,9.4
2016-11-23T05:09:36.883Z,9.65
2016-11-23T05:10:45.559Z,9.51
2016-11-23T05:11:55.088Z,9.27
2016-11-23T05:13:03.661Z,9.18
2016-11-23T05:14:13.194Z,9.32
2016-11-23T05:15:22.084Z,9.27
2016-11-23T05:16:31.006Z,9.14
2016-11-23T05:17:39.577Z,9.33
2016-11-23T05:18:48.149Z,9.48
2016-11-23T05:19:57.380Z,9.45
2016-11-23T05:21:06.270Z,9.55
2016-11-23T05:22:14.890Z,9.59
2016-11-23T05:23:24.095Z,9.54
2016-11-23T05:24:32.985Z,9.4
2016-11-23T05:25:41.560Z,9.44
2016-11-23T05:26:50.135Z,9.16
2016-11-23T05:27:59.425Z,9.29
2016-11-23T05:29:08.326Z,9.29
2016-11-23T05:30:17.214Z,9.36
2016-11-23T05:31:26.113Z,9.12
2016-11-23T05:32:35.005Z,9.15
2016-11-23T05:33:44.263Z,9.23
2016-11-23T05:34:52.843Z,9.19
2016-11-23T05:36:02.052Z,9.19
2016-11-23T05:37:10.625Z,9.01
2016-11-23T05:38:19.829Z,9.08
2016-11-23T05:39:29.068Z,9.03
2016-11-23T05:40:37.962Z,9.06
2016-11-23T05:41:46.542Z,8.99
2016-11-23T05:42:55.119Z,9.04
2016-11-23T05:44:04.010Z,9.06
2016-11-23T05:45:13.007Z,9.04
2016-11-23T05:46:21.580Z,9.22
2016-11-23T05:47:30.468Z,8.98
2016-11-23T05:48:39.362Z,9.08
2016-11-23T05:49:48.253Z,9.22
2016-11-23T05:50:56.831Z,9.23
2016-11-23T05:52:05.402Z,9.04
2016-11-23T05:53:13.978Z,9.09
2016-11-23T05:54:22.554Z,9.01
2016-11-23T05:55:31.453Z,9.08
2016-11-23T05:56:40.080Z,9.24
2016-11-23T05:57:48.653Z,9.19
2016-11-23T05:58:57.223Z,9.5
2016-11-23T06:00:05.802Z,9.59
2016-11-23T06:01:14.377Z,9.57
2016-11-23T06:02:23.688Z,9.12
2016-11-23T06:03:32.583Z,8.85
2016-11-23T06:04:41.209Z,8.81
2016-11-23T06:05:49.793Z,8.85
2016-11-23T06:06:58.696Z,8.88
2016-11-23T06:08:07.634Z,9.15
2016-11-23T06:09:16.523Z,9.18
2016-11-23T06:10:25.097Z,9.24
2016-11-23T06:11:33.988Z,9.23
2016-11-23T06:12:42.564Z,9.42
2016-11-23T06:13:51.187Z,9.37
2016-11-23T06:14:59.762Z,9.3
2016-11-23T06:16:08.976Z,9.15
2016-11-23T06:17:17.867Z,9.16
2016-11-23T06:18:26.763Z,9.14
2016-11-23T06:19:35.738Z,9.15
2016-11-23T06:20:44.624Z,9.03
2016-11-23T06:21:53.195Z,9.11
2016-11-23T06:23:01.769Z,9.19
2016-11-23T06:24:10.666Z,9.32
2016-11-23T06:25:19.289Z,9.3
2016-11-23T06:26:28.522Z,9.42
2016-11-23T06:27:37.091Z,9.26
2016-11-23T06:28:45.989Z,9.16
2016-11-23T06:29:54.561Z,9.18
2016-11-23T06:31:03.604Z,9.33
2016-11-23T06:32:12.499Z,8.98
2016-11-23T06:33:21.390Z,8.85
2016-11-23T06:34:30.597Z,9.08
2016-11-23T06:35:39.170Z,9.15
2016-11-23T06:36:48.466Z,9.09
2016-11-23T06:37:57.036Z,8.93
2016-11-23T06:39:05.613Z,8.89
2016-11-23T06:40:14.818Z,8.74
2016-11-23T06:41:23.388Z,8.68
2016-11-23T06:42:32.312Z,8.8
2016-11-23T06:43:41.201Z,8.81
2016-11-23T06:44:49.776Z,9.06
2016-11-23T06:45:58.373Z,8.88
2016-11-23T06:47:07.307Z,8.85
2016-11-23T06:48:16.229Z,9.03
2016-11-23T06:49:25.123Z,9.14
2016-11-23T06:50:34.011Z,8.95
2016-11-23T06:51:42.904Z,9.12
2016-11-23T06:52:52.435Z,8.98
2016-11-23T06:54:01.355Z,8.8
2016-11-23T06:55:10.245Z,8.63
2016-11-23T06:56:18.816Z,8.56
2016-11-23T06:57:27.746Z,8.62
2016-11-23T06:58:36.638Z,8.67
2016-11-23T06:59:45.588Z,8.68
2016-11-23T07:00:54.477Z,8.75
2016-11-23T07:02:03.062Z,9.01
2016-11-23T07:03:11.683Z,8.88
2016-11-23T07:04:20.260Z,8.95
2016-11-23T07:05:29.199Z,9.09
2016-11-23T07:06:38.120Z,9.29
2016-11-23T07:07:47.011Z,9.3
2016-11-23T07:08:55.581Z,9.29
2016-11-23T07:10:04.483Z,9.16
2016-11-23T07:11:13.504Z,9.23
2016-11-23T07:12:22.707Z,9.23
2016-11-23T07:13:31.292Z,9.14
2016-11-23T07:14:39.863Z,9.15
2016-11-23T07:15:48.442Z,9.14
2016-11-23T07:16:57.365Z,9.08
2016-11-23T07:18:05.943Z,9.18
2016-11-23T07:19:15.159Z,9.12
2016-11-23T07:20:24.054Z,9.18
2016-11-23T07:21:32.629Z,9.04
2016-11-23T07:22:41.568Z,8.98
2016-11-23T07:23:50.781Z,9.18
2016-11-23T07:24:59.671Z,9.01
2016-11-23T07:26:08.244Z,8.88
2016-11-23T07:27:16.835Z,8.85
2016-11-23T07:28:25.809Z,8.9
2016-11-23T07:29:34.696Z,8.83
2016-11-23T07:30:43.274Z,9.09
2016-11-23T07:31:51.852Z,9.26
2016-11-23T07:33:00.428Z,9.41
2016-11-23T07:34:09.454Z,9.34
2016-11-23T07:35:18.026Z,9.44
2016-11-23T07:36:26.916Z,9.24
2016-11-23T07:37:36.127Z,8.98
2016-11-23T07:38:45.340Z,8.63
2016-11-23T07:39:54.631Z,8.5
2016-11-23T07:41:03.559Z,8.53
2016-11-23T07:42:12.132Z,8.7
2016-11-23T07:43:21.023Z,8.83
2016-11-23T07:44:30.236Z,9.04
2016-11-23T07:45:38.857Z,9.09
2016-11-23T07:46:47.749Z,9.06
2016-11-23T07:47:56.325Z,9.22
2016-11-23T07:49:05.214Z,9.22
2016-11-23T07:50:13.786Z,8.98
2016-11-23T07:51:22.712Z,8.93
2016-11-23T07:52:31.282Z,8.81
2016-11-23T07:53:40.167Z,8.75
2016-11-23T07:54:48.741Z,8.81
2016-11-23T07:55:57.950Z,8.8
2016-11-23T07:57:07.005Z,9.08
2016-11-23T07:58:15.620Z,9.03
2016-11-23T07:59:24.553Z,9.16
2016-11-23T08:00:33.151Z,9.19
2016-11-23T08:01:41.738Z,9.32
2016-11-23T08:02:51.108Z,9.29
2016-11-23T08:03:59.682Z,9.37
2016-11-23T08:05:08.268Z,9.24
2016-11-23T08:06:17.190Z,9.45
2016-11-23T08:07:26.121Z,9.48
2016-11-23T08:08:35.074Z,9.45
2016-11-23T08:09:43.657Z,9.45
2016-11-23T08:10:52.250Z,9.45
2016-11-23T08:12:01.142Z,9.62
2016-11-23T08:13:09.737Z,9.5
2016-11-23T08:14:18.359Z,9.85
2016-11-23T08:15:26.929Z,9.69
2016-11-23T08:16:35.502Z,9.72
2016-11-23T08:17:44.092Z,9.8
2016-11-23T08:18:52.985Z,9.99
2016-11-23T08:20:02.244Z,10.01
2016-11-23T08:21:10.855Z,10.1
2016-11-23T08:22:19.427Z,10.06
2016-11-23T08:23:28.634Z,9.99
2016-11-23T08:24:37.206Z,9.94
2016-11-23T08:25:45.830Z,9.94
2016-11-23T08:26:54.404Z,9.85
2016-11-23T08:28:03.297Z,9.94
2016-11-23T08:29:12.203Z,9.99
2016-11-23T08:30:20.776Z,10.01
2016-11-23T08:31:29.402Z,10.01
2016-11-23T08:32:37.977Z,10.12
2016-11-23T08:33:46.869Z,10.46
2016-11-23T08:34:56.081Z,10.68
2016-11-23T08:36:04.976Z,10.61
2016-11-23T08:37:14.216Z,10.7
2016-11-23T08:38:22.793Z,10.46
2016-11-23T08:39:31.368Z,10.23
2016-11-23T08:40:39.943Z,10.2
2016-11-23T08:41:48.525Z,10.17
2016-11-23T08:42:57.547Z,10.21
2016-11-23T08:44:06.442Z,10.26
2016-11-23T08:45:15.654Z,10.27
2016-11-23T08:46:24.231Z,10.43
2016-11-23T08:47:33.125Z,10.35
2016-11-23T08:48:42.447Z,10.16
2016-11-23T08:49:51.016Z,9.99
2016-11-23T08:50:59.592Z,10.2
2016-11-23T08:52:08.195Z,10.26
2016-11-23T08:53:17.426Z,10.16
2016-11-23T08:54:26.104Z,10.38
2016-11-23T08:55:35.351Z,10.35
2016-11-23T08:56:44.559Z,10.49
2016-11-23T08:57:53.135Z,10.34
2016-11-23T08:59:01.707Z,10.35
2016-11-23T09:00:10.683Z,10.28
2016-11-23T09:01:19.255Z,10.39
2016-11-23T09:02:28.147Z,10.21
2016-11-23T09:03:37.041Z,10.58
2016-11-23T09:04:45.616Z,10.55
2016-11-23T09:05:54.909Z,10.58
2016-11-23T09:07:03.800Z,10.38
2016-11-23T09:08:12.703Z,10.18
2016-11-23T09:09:21.283Z,10.16
2016-11-23T09:10:30.492Z,10.43
2016-11-23T09:11:39.438Z,10.72
2016-11-23T09:12:48.014Z,10.58
2016-11-23T09:13:56.591Z,10.73
2016-11-23T09:15:05.482Z,10.86
2016-11-23T09:16:14.058Z,11.15
2016-11-23T09:17:23.302Z,11.03
2016-11-23T09:18:32.514Z,10.86
2016-11-23T09:19:41.414Z,10.62
2016-11-23T09:20:49.993Z,10.52
2016-11-23T09:21:58.572Z,10.68
2016-11-23T09:23:07.598Z,10.75
2016-11-23T09:24:16.202Z,10.8
2016-11-23T09:25:24.785Z,10.67
2016-11-23T09:26:33.689Z,10.79
2016-11-23T09:27:42.903Z,10.64
2016-11-23T09:28:51.588Z,11.2
2016-11-23T09:30:00.504Z,10.85
2016-11-23T09:31:09.089Z,11.34
2016-11-23T09:32:17.984Z,11.43
2016-11-23T09:33:26.882Z,11.67
2016-11-23T09:34:35.557Z,11.58
2016-11-23T09:35:45.093Z,11.25
2016-11-23T09:36:54.003Z,11.31
2016-11-23T09:38:02.579Z,11.15
2016-11-23T09:39:11.476Z,11.15
2016-11-23T09:40:20.430Z,11.12
2016-11-23T09:41:29.019Z,11.16
2016-11-23T09:42:37.593Z,11.34
2016-11-23T09:43:46.487Z,11.36
2016-11-23T09:44:55.382Z,11.22
2016-11-23T09:46:04.339Z,11.55
2016-11-23T09:47:13.552Z,11.16
2016-11-23T09:48:22.150Z,11.25
2016-11-23T09:49:30.727Z,11.08
2016-11-23T09:50:39.632Z,11.19
2016-11-23T09:51:48.227Z,11.22
2016-11-23T09:52:57.341Z,11.12
2016-11-23T09:54:06.558Z,11.11
2016-11-23T09:55:15.136Z,11.13
2016-11-23T09:56:24.271Z,11.69
2016-11-23T09:57:33.263Z,11.66
2016-11-23T09:58:42.484Z,11.56
2016-11-23T09:59:51.942Z,11.62
2016-11-23T10:01:00.642Z,11.77
2016-11-23T10:02:09.547Z,11.55
2016-11-23T10:03:19.133Z,11.59
2016-11-23T10:04:28.032Z,11.56
2016-11-23T10:05:36.619Z,11.31
2016-11-23T10:06:45.875Z,11.3
2016-11-23T10:07:54.460Z,11.13
2016-11-23T10:09:03.146Z,11.34
2016-11-23T10:10:12.082Z,11.49
2016-11-23T10:11:20.978Z,11.38
2016-11-23T10:12:29.880Z,11.52
2016-11-23T10:13:38.779Z,11.87
2016-11-23T10:14:47.709Z,11.54
2016-11-23T10:15:56.290Z,11.96
2016-11-23T10:17:04.869Z,11.99
2016-11-23T10:18:13.444Z,12.3
2016-11-23T10:19:22.345Z,12.38
2016-11-23T10:20:31.595Z,12.04
2016-11-23T10:21:40.170Z,12
2016-11-23T10:22:49.072Z,12.08
2016-11-23T10:23:57.971Z,12.13
2016-11-23T10:25:06.559Z,11.96
2016-11-23T10:26:15.807Z,12.58
2016-11-23T10:27:24.390Z,12.81
2016-11-23T10:28:32.963Z,12.88
2016-11-23T10:29:41.540Z,13.02
2016-11-23T10:30:50.750Z,13.16
2016-11-23T10:32:00.313Z,13.04
2016-11-23T10:33:08.893Z,12.99
2016-11-23T10:34:17.794Z,13.21
2016-11-23T10:35:27.341Z,13.35
2016-11-23T10:36:35.933Z,12.98
2016-11-23T10:37:44.880Z,13.13
2016-11-23T10:38:53.458Z,13.04
2016-11-23T10:40:02.385Z,13.01
2016-11-23T10:41:11.285Z,12.95
2016-11-23T10:42:19.867Z,12.59
2016-11-23T10:43:28.539Z,12.72
2016-11-23T10:44:37.164Z,12.13
2016-11-23T10:45:46.699Z,12.41
2016-11-23T10:46:55.313Z,12.08
2016-11-23T10:48:03.915Z,12.46
2016-11-23T10:49:13.480Z,12.33
2016-11-23T10:50:22.400Z,12.72
2016-11-23T10:51:31.318Z,13.17
2016-11-23T10:52:40.257Z,12.86
2016-11-23T10:53:49.168Z,13.02
2016-11-23T10:54:58.117Z,12.95
2016-11-23T10:56:07.344Z,12.63
2016-11-23T10:57:16.244Z,12.68
2016-11-23T10:58:24.823Z,12.47
2016-11-23T10:59:33.405Z,12.35
2016-11-23T11:00:42.656Z,12.47
2016-11-23T11:01:51.264Z,12.43
2016-11-23T11:03:00.183Z,12.36
2016-11-23T11:04:09.080Z,12.65
2016-11-23T11:05:17.655Z,12.96
2016-11-23T11:06:26.287Z,13.01
2016-11-23T11:07:34.866Z,12.83
2016-11-23T11:08:43.448Z,12.61
2016-11-23T11:09:52.345Z,12.53
2016-11-23T11:11:01.571Z,12.95
2016-11-23T11:12:10.205Z,12.66
2016-11-23T11:13:18.786Z,12.63
2016-11-23T11:14:27.366Z,12.95
2016-11-23T11:15:36.582Z,13.01
2016-11-23T11:16:45.476Z,13.04
2016-11-23T11:17:54.406Z,13.05
2016-11-23T11:19:04.260Z,12.86
2016-11-23T11:20:13.160Z,12.54
2016-11-23T11:21:21.743Z,12.62
2016-11-23T11:22:30.327Z,12.95
2016-11-23T11:23:39.299Z,12.83
2016-11-23T11:24:47.896Z,12.99
2016-11-23T11:25:57.116Z,12.91
2016-11-23T11:27:05.696Z,12.79
2016-11-23T11:28:14.283Z,13.02
2016-11-23T11:29:23.270Z,13.17
2016-11-23T11:30:31.887Z,13.32
2016-11-23T11:31:40.468Z,13.17
2016-11-23T11:32:49.048Z,12.81
2016-11-23T11:33:57.627Z,12.93
2016-11-23T11:35:06.894Z,13.26
2016-11-23T11:36:16.079Z,12.59
2016-11-23T11:37:24.992Z,12.68
2016-11-23T11:38:33.569Z,12.84
2016-11-23T11:39:42.467Z,12.71
2016-11-23T11:40:51.153Z,12.65
2016-11-23T11:42:00.071Z,12.48
2016-11-23T11:43:09.328Z,12.53
2016-11-23T11:44:18.544Z,12.93
2016-11-23T11:45:27.121Z,13.09
2016-11-23T11:46:35.752Z,12.91
2016-11-23T11:47:44.334Z,13.01
2016-11-23T11:48:52.919Z,12.86
2016-11-23T11:50:01.819Z,12.93
2016-11-23T11:51:11.037Z,13.35
2016-11-23T11:52:20.287Z,13.17
2016-11-23T11:53:29.188Z,12.83
2016-11-23T11:54:38.083Z,12.66
2016-11-23T11:55:47.297Z,12.63
2016-11-23T11:56:56.197Z,12.9
2016-11-23T11:58:05.240Z,13.3
2016-11-23T11:59:13.851Z,12.88
2016-11-23T12:00:22.753Z,12.91
2016-11-23T12:01:31.657Z,12.88
2016-11-23T12:02:40.556Z,13.09
2016-11-23T12:03:49.903Z,13.47
2016-11-23T12:04:59.121Z,13.61
2016-11-23T12:06:07.701Z,13.35
2016-11-23T12:07:16.598Z,13.51
2016-11-23T12:08:25.491Z,13.51
2016-11-23T12:09:34.764Z,13.63
2016-11-23T12:10:43.989Z,13.27
2016-11-23T12:11:52.573Z,13.47
2016-11-23T12:13:01.151Z,13.49
2016-11-23T12:14:09.741Z,13.76
2016-11-23T12:15:18.374Z,13.67
2016-11-23T12:16:26.957Z,13.38
2016-11-23T12:17:35.854Z,13.2
2016-11-23T12:18:44.748Z,13.35
2016-11-23T12:19:53.328Z,13.09
2016-11-23T12:21:02.272Z,13.29
2016-11-23T12:22:11.487Z,12.99
2016-11-23T12:23:20.707Z,12.91
2016-11-23T12:24:29.289Z,12.91
2016-11-23T12:25:38.190Z,12.96
2016-11-23T12:26:46.869Z,13.02
2016-11-23T12:27:55.451Z,13.17
2016-11-23T12:29:04.028Z,13.2
2016-11-23T12:30:12.924Z,12.98
2016-11-23T12:31:21.511Z,13.06
2016-11-23T12:32:31.079Z,13.01
2016-11-23T12:33:39.979Z,13.09
2016-11-23T12:34:48.558Z,12.84
2016-11-23T12:35:57.488Z,12.86
2016-11-23T12:37:06.095Z,12.73
2016-11-23T12:38:15.408Z,12.93
2016-11-23T12:39:24.310Z,12.59
2016-11-23T12:40:33.524Z,12.43
2016-11-23T12:41:42.131Z,12.58
2016-11-23T12:42:51.027Z,12.54
2016-11-23T12:44:00.594Z,12.69
2016-11-23T12:45:09.499Z,12.72
2016-11-23T12:46:18.415Z,12.55
2016-11-23T12:47:27.647Z,12.63
2016-11-23T12:48:36.546Z,12.62
2016-11-23T12:49:45.499Z,12.83
2016-11-23T12:50:54.080Z,12.91
2016-11-23T12:52:02.658Z,12.93
2016-11-23T12:53:11.562Z,12.87
2016-11-23T12:54:20.477Z,12.72
2016-11-23T12:55:29.166Z,12.8
2016-11-23T12:56:38.386Z,12.86
2016-11-23T12:57:47.285Z,12.65
2016-11-23T12:58:56.497Z,12.87
2016-11-23T13:00:05.392Z,12.91
2016-11-23T13:01:14.325Z,12.99
2016-11-23T13:02:23.572Z,12.73
2016-11-23T13:03:32.149Z,12.93
2016-11-23T13:04:41.064Z,13.24
2016-11-23T13:05:49.642Z,13.27
2016-11-23T13:06:58.630Z,12.73
2016-11-23T13:08:07.533Z,13.04
2016-11-23T13:09:16.746Z,12.83
2016-11-23T13:10:25.328Z,12.76
2016-11-23T13:11:33.905Z,12.68
2016-11-23T13:12:42.539Z,12.68
2016-11-23T13:13:51.435Z,12.68
2016-11-23T13:15:00.357Z,12.9
2016-11-23T13:16:09.574Z,12.93
2016-11-23T13:17:18.518Z,12.73
2016-11-23T13:18:27.167Z,12.81
2016-11-23T13:19:35.746Z,12.68
2016-11-23T13:20:44.320Z,12.83
2016-11-23T13:21:53.535Z,12.54
2016-11-23T13:23:02.438Z,12.54
2016-11-23T13:24:11.788Z,12.43
2016-11-23T13:25:21.002Z,12.47
2016-11-23T13:26:29.902Z,12.58
2016-11-23T13:27:39.146Z,12.71
2016-11-23T13:28:47.724Z,12.72
2016-11-23T13:29:57.531Z,12.66
2016-11-23T13:31:06.440Z,12.54
2016-11-23T13:32:15.337Z,12.79
2016-11-23T13:33:23.916Z,13.04
2016-11-23T13:34:33.145Z,12.72
2016-11-23T13:35:42.136Z,12.86
2016-11-23T13:36:50.720Z,12.95
2016-11-23T13:37:59.327Z,12.83
2016-11-23T13:39:08.545Z,13.01
2016-11-23T13:40:17.444Z,13.14
2016-11-23T13:41:26.376Z,13.01
2016-11-23T13:42:35.273Z,12.99
2016-11-23T13:43:43.871Z,13.09
2016-11-23T13:44:53.097Z,13.11
2016-11-23T13:46:01.686Z,12.93
2016-11-23T13:47:10.620Z,12.83
2016-11-23T13:48:19.838Z,12.95
2016-11-23T13:49:29.373Z,12.81
2016-11-23T13:50:38.272Z,12.95
2016-11-23T13:51:47.177Z,12.68
2016-11-23T13:52:55.808Z,12.55
2016-11-23T13:54:05.114Z,12.53
2016-11-23T13:55:14.381Z,12.58
2016-11-23T13:56:23.598Z,12.63
2016-11-23T13:57:32.198Z,12.61
2016-11-23T13:58:41.468Z,12.59
2016-11-23T13:59:50.053Z,12.53
2016-11-23T14:00:58.950Z,12.54
2016-11-23T14:02:07.539Z,12.62
2016-11-23T14:03:16.117Z,12.53
2016-11-23T14:04:24.751Z,12.63
2016-11-23T14:05:33.333Z,12.68
2016-11-23T14:06:41.911Z,12.51
2016-11-23T14:07:50.806Z,12.47
2016-11-23T14:08:59.733Z,12.58
2016-11-23T14:10:08.745Z,12.43
2016-11-23T14:11:17.339Z,12.59
2016-11-23T14:12:26.234Z,12.36
2016-11-23T14:13:35.136Z,12.21
2016-11-23T14:14:43.718Z,12.36
2016-11-23T14:15:52.996Z,12.38
2016-11-23T14:17:02.212Z,12.26
2016-11-23T14:18:11.747Z,12.3
2016-11-23T14:19:20.325Z,12.35
2016-11-23T14:20:28.900Z,12.26
2016-11-23T14:21:38.528Z,12.25
2016-11-23T14:22:47.117Z,12.36
2016-11-23T14:23:55.702Z,12.21
2016-11-23T14:25:04.594Z,12.08
2016-11-23T14:26:13.175Z,12.07
2016-11-23T14:27:22.740Z,12.05
2016-11-23T14:28:31.321Z,11.99
2016-11-23T14:29:40.223Z,12.03
2016-11-23T14:30:49.117Z,12.13
2016-11-23T14:31:57.702Z,12.08
2016-11-23T14:33:06.984Z,12.11
2016-11-23T14:34:15.884Z,12.35
2016-11-23T14:35:24.466Z,12.32
2016-11-23T14:36:33.043Z,12.28
2016-11-23T14:37:41.619Z,12.26
2016-11-23T14:38:50.870Z,12.4
2016-11-23T14:39:59.767Z,12.38
2016-11-23T14:41:08.665Z,12.48
2016-11-23T14:42:17.601Z,12.51
2016-11-23T14:43:26.176Z,12.33
2016-11-23T14:44:35.127Z,12.32
2016-11-23T14:45:44.030Z,12.1
2016-11-23T14:46:52.927Z,12.13
2016-11-23T14:48:01.822Z,12.13
2016-11-23T14:49:10.403Z,12.13
2016-11-23T14:50:19.652Z,12.04
2016-11-23T14:51:28.548Z,12
2016-11-23T14:52:37.441Z,12.14
2016-11-23T14:53:46.652Z,12.11
2016-11-23T14:54:55.232Z,12.15
2016-11-23T14:56:03.909Z,12.04
2016-11-23T14:57:12.489Z,11.95